sensor_id;sensor_type;location;lat;lon;timestamp;temperature;humidity
19033;DHT22;9649;51.042;13.804;2023-12-20T00:02:53;6.50;99.90
19033;DHT22;9649;51.042;13.804;2023-12-20T00:07:55;6.50;99.90
19033;DHT22;9649;51.042;13.804;2023-12-20T00:13:00;6.50;99.90
19033;DHT22;9649;51.042;13.804;2023-12-20T00:18:03;6.40;99.90
19033;DHT22;9649;51.042;13.804;2023-12-20T00:23:06;6.30;99.90
19033;DHT22;9649;51.042;13.804;2023-12-20T00:28:11;6.30;99.90
19033;DHT22;9649;51.042;13.804;2023-12-20T00:33:14;6.20;99.90
19033;DHT22;9649;51.042;13.804;2023-12-20T00:38:17;6.20;99.90
19033;DHT22;9649;51.042;13.804;2023-12-20T00:43:21;6.20;99.90
19033;DHT22;9649;51.042;13.804;2023-12-20T00:48:24;6.20;99.90
19033;DHT22;9649;51.042;13.804;2023-12-20T00:53:28;6.10;99.90
19033;DHT22;9649;51.042;13.804;2023-12-20T00:58:32;6.10;99.90
19033;DHT22;9649;51.042;13.804;2023-12-20T01:03:35;6.00;99.90
19033;DHT22;9649;51.042;13.804;2023-12-20T01:08:38;6.00;99.90
19033;DHT22;9649;51.042;13.804;2023-12-20T01:13:42;5.90;99.90
19033;DHT22;9649;51.042;13.804;2023-12-20T01:18:45;6.00;99.90
19033;DHT22;9649;51.042;13.804;2023-12-20T01:23:48;5.90;99.90
19033;DHT22;9649;51.042;13.804;2023-12-20T01:28:52;5.90;99.90
19033;DHT22;9649;51.042;13.804;2023-12-20T01:33:55;5.90;99.90
19033;DHT22;9649;51.042;13.804;2023-12-20T01:38:58;5.80;99.90
19033;DHT22;9649;51.042;13.804;2023-12-20T01:44:03;5.70;99.90
19033;DHT22;9649;51.042;13.804;2023-12-20T01:49:06;5.70;99.90
19033;DHT22;9649;51.042;13.804;2023-12-20T01:54:09;5.70;99.90
19033;DHT22;9649;51.042;13.804;2023-12-20T01:59:14;5.80;99.90
19033;DHT22;9649;51.042;13.804;2023-12-20T02:04:17;5.80;99.90
19033;DHT22;9649;51.042;13.804;2023-12-20T02:09:20;5.70;99.90
19033;DHT22;9649;51.042;13.804;2023-12-20T02:14:24;5.70;99.90
19033;DHT22;9649;51.042;13.804;2023-12-20T02:19:27;5.60;99.90
19033;DHT22;9649;51.042;13.804;2023-12-20T02:24:31;5.60;99.90
19033;DHT22;9649;51.042;13.804;2023-12-20T02:29:34;5.60;99.90
19033;DHT22;9649;51.042;13.804;2023-12-20T02:34:37;5.60;99.90
19033;DHT22;9649;51.042;13.804;2023-12-20T02:39:41;5.50;99.90
19033;DHT22;9649;51.042;13.804;2023-12-20T02:44:44;5.50;99.90
19033;DHT22;9649;51.042;13.804;2023-12-20T02:49:49;5.60;99.90
19033;DHT22;9649;51.042;13.804;2023-12-20T02:54:53;5.60;99.90
19033;DHT22;9649;51.042;13.804;2023-12-20T02:59:56;5.60;99.90
19033;DHT22;9649;51.042;13.804;2023-12-20T03:04:59;5.60;99.90
19033;DHT22;9649;51.042;13.804;2023-12-20T03:10:05;5.60;99.90
19033;DHT22;9649;51.042;13.804;2023-12-20T03:15:20;5.50;99.90
19033;DHT22;9649;51.042;13.804;2023-12-20T03:20:23;5.50;99.90
19033;DHT22;9649;51.042;13.804;2023-12-20T03:25:29;5.40;99.90
19033;DHT22;9649;51.042;13.804;2023-12-20T03:30:32;5.50;99.90
19033;DHT22;9649;51.042;13.804;2023-12-20T03:35:35;5.40;99.90
19033;DHT22;9649;51.042;13.804;2023-12-20T03:40:39;5.40;99.90
19033;DHT22;9649;51.042;13.804;2023-12-20T03:45:42;5.40;99.90
19033;DHT22;9649;51.042;13.804;2023-12-20T03:50:45;5.40;99.90
19033;DHT22;9649;51.042;13.804;2023-12-20T03:55:50;5.40;99.90
19033;DHT22;9649;51.042;13.804;2023-12-20T04:00:52;5.40;99.90
19033;DHT22;9649;51.042;13.804;2023-12-20T04:05:55;5.50;99.90
19033;DHT22;9649;51.042;13.804;2023-12-20T04:10:59;5.40;99.90
19033;DHT22;9649;51.042;13.804;2023-12-20T04:16:02;5.30;99.90
19033;DHT22;9649;51.042;13.804;2023-12-20T04:21:05;5.40;99.90
19033;DHT22;9649;51.042;13.804;2023-12-20T04:26:10;5.50;99.90
19033;DHT22;9649;51.042;13.804;2023-12-20T04:31:13;5.50;99.90
19033;DHT22;9649;51.042;13.804;2023-12-20T04:36:16;5.50;99.90
19033;DHT22;9649;51.042;13.804;2023-12-20T04:41:20;5.50;99.90
19033;DHT22;9649;51.042;13.804;2023-12-20T04:46:23;5.50;99.90
19033;DHT22;9649;51.042;13.804;2023-12-20T04:51:26;5.50;99.90
19033;DHT22;9649;51.042;13.804;2023-12-20T04:56:31;5.50;99.90
19033;DHT22;9649;51.042;13.804;2023-12-20T05:01:34;5.50;99.90
19033;DHT22;9649;51.042;13.804;2023-12-20T05:06:38;5.50;99.90
19033;DHT22;9649;51.042;13.804;2023-12-20T05:11:43;5.60;99.90
19033;DHT22;9649;51.042;13.804;2023-12-20T05:16:46;5.60;99.90
19033;DHT22;9649;51.042;13.804;2023-12-20T05:21:49;5.70;99.90
19033;DHT22;9649;51.042;13.804;2023-12-20T05:26:54;5.70;99.90
19033;DHT22;9649;51.042;13.804;2023-12-20T05:31:58;5.60;99.90
19033;DHT22;9649;51.042;13.804;2023-12-20T05:37:01;5.70;99.90
19033;DHT22;9649;51.042;13.804;2023-12-20T05:42:06;5.70;99.90
19033;DHT22;9649;51.042;13.804;2023-12-20T05:47:09;5.80;99.90
19033;DHT22;9649;51.042;13.804;2023-12-20T05:52:11;5.80;99.90
19033;DHT22;9649;51.042;13.804;2023-12-20T05:57:16;5.90;99.90
19033;DHT22;9649;51.042;13.804;2023-12-20T06:02:19;5.80;99.90
19033;DHT22;9649;51.042;13.804;2023-12-20T06:07:21;5.80;99.90
19033;DHT22;9649;51.042;13.804;2023-12-20T06:12:26;5.80;99.90
19033;DHT22;9649;51.042;13.804;2023-12-20T06:17:30;5.80;99.90
19033;DHT22;9649;51.042;13.804;2023-12-20T06:22:34;5.80;99.90
19033;DHT22;9649;51.042;13.804;2023-12-20T06:27:38;5.90;99.90
19033;DHT22;9649;51.042;13.804;2023-12-20T06:32:41;5.80;99.90
19033;DHT22;9649;51.042;13.804;2023-12-20T06:37:44;5.80;99.90
19033;DHT22;9649;51.042;13.804;2023-12-20T06:42:48;6.00;99.90
19033;DHT22;9649;51.042;13.804;2023-12-20T06:48:06;6.10;99.90
19033;DHT22;9649;51.042;13.804;2023-12-20T06:53:09;6.10;99.90
19033;DHT22;9649;51.042;13.804;2023-12-20T06:58:13;5.90;99.90
19033;DHT22;9649;51.042;13.804;2023-12-20T07:03:16;5.90;99.90
19033;DHT22;9649;51.042;13.804;2023-12-20T07:08:19;5.90;99.90
19033;DHT22;9649;51.042;13.804;2023-12-20T07:13:24;5.90;99.90
19033;DHT22;9649;51.042;13.804;2023-12-20T07:18:27;5.90;99.90
19033;DHT22;9649;51.042;13.804;2023-12-20T07:23:30;5.90;99.90
19033;DHT22;9649;51.042;13.804;2023-12-20T07:28:34;6.00;99.90
19033;DHT22;9649;51.042;13.804;2023-12-20T07:33:37;5.90;99.90
19033;DHT22;9649;51.042;13.804;2023-12-20T07:38:41;5.90;99.90
19033;DHT22;9649;51.042;13.804;2023-12-20T07:43:47;5.80;99.90
19033;DHT22;9649;51.042;13.804;2023-12-20T07:48:49;5.70;99.90
19033;DHT22;9649;51.042;13.804;2023-12-20T07:53:52;5.80;99.90
19033;DHT22;9649;51.042;13.804;2023-12-20T07:58:56;5.80;99.90
19033;DHT22;9649;51.042;13.804;2023-12-20T08:04:01;5.70;99.90
19033;DHT22;9649;51.042;13.804;2023-12-20T08:09:04;5.60;99.90
19033;DHT22;9649;51.042;13.804;2023-12-20T08:14:09;5.70;99.90
19033;DHT22;9649;51.042;13.804;2023-12-20T08:19:11;6.10;99.90
19033;DHT22;9649;51.042;13.804;2023-12-20T08:24:15;6.40;99.90
19033;DHT22;9649;51.042;13.804;2023-12-20T08:29:19;7.10;99.90
19033;DHT22;9649;51.042;13.804;2023-12-20T08:34:22;7.10;99.90
19033;DHT22;9649;51.042;13.804;2023-12-20T08:39:26;8.20;99.90
19033;DHT22;9649;51.042;13.804;2023-12-20T08:44:30;9.20;1.00
19033;DHT22;9649;51.042;13.804;2023-12-20T08:49:33;10.80;1.00
19033;DHT22;9649;51.042;13.804;2023-12-20T08:54:36;15.10;1.00
19033;DHT22;9649;51.042;13.804;2023-12-20T08:59:40;17.10;1.00
19033;DHT22;9649;51.042;13.804;2023-12-20T09:04:43;18.50;1.00
19033;DHT22;9649;51.042;13.804;2023-12-20T09:09:46;14.80;1.00
19033;DHT22;9649;51.042;13.804;2023-12-20T09:14:51;11.50;1.00
19033;DHT22;9649;51.042;13.804;2023-12-20T09:19:53;11.50;1.00
19033;DHT22;9649;51.042;13.804;2023-12-20T09:24:56;13.00;1.00
19033;DHT22;9649;51.042;13.804;2023-12-20T09:30:01;15.50;1.00
19033;DHT22;9649;51.042;13.804;2023-12-20T09:35:04;18.40;1.00
19033;DHT22;9649;51.042;13.804;2023-12-20T09:40:11;20.90;99.90
19033;DHT22;9649;51.042;13.804;2023-12-20T09:45:19;20.60;99.90
19033;DHT22;9649;51.042;13.804;2023-12-20T09:50:24;20.10;99.90
19033;DHT22;9649;51.042;13.804;2023-12-20T09:55:28;18.60;99.90
19033;DHT22;9649;51.042;13.804;2023-12-20T10:00:33;19.40;99.90
19033;DHT22;9649;51.042;13.804;2023-12-20T10:05:36;19.80;99.90
19033;DHT22;9649;51.042;13.804;2023-12-20T10:10:39;21.80;99.90
19033;DHT22;9649;51.042;13.804;2023-12-20T10:15:50;22.30;99.90
19033;DHT22;9649;51.042;13.804;2023-12-20T10:20:53;19.90;99.90
19033;DHT22;9649;51.042;13.804;2023-12-20T10:25:56;17.90;99.90
19033;DHT22;9649;51.042;13.804;2023-12-20T10:31:01;20.10;99.90
19033;DHT22;9649;51.042;13.804;2023-12-20T10:36:05;20.80;99.90
19033;DHT22;9649;51.042;13.804;2023-12-20T10:41:09;21.10;99.90
19033;DHT22;9649;51.042;13.804;2023-12-20T10:46:13;19.90;99.90
19033;DHT22;9649;51.042;13.804;2023-12-20T10:51:18;20.20;99.90
19033;DHT22;9649;51.042;13.804;2023-12-20T10:56:22;18.20;99.90
19033;DHT22;9649;51.042;13.804;2023-12-20T11:01:27;17.20;99.90
19033;DHT22;9649;51.042;13.804;2023-12-20T11:06:38;17.80;99.90
19033;DHT22;9649;51.042;13.804;2023-12-20T11:11:59;17.70;99.90
19033;DHT22;9649;51.042;13.804;2023-12-20T11:17:08;17.30;99.90
19033;DHT22;9649;51.042;13.804;2023-12-20T11:22:17;17.10;99.90
19033;DHT22;9649;51.042;13.804;2023-12-20T11:27:20;15.70;99.90
19033;DHT22;9649;51.042;13.804;2023-12-20T11:32:30;12.80;99.90
19033;DHT22;9649;51.042;13.804;2023-12-20T11:37:35;10.90;1.00
19033;DHT22;9649;51.042;13.804;2023-12-20T11:42:40;10.00;99.90
19033;DHT22;9649;51.042;13.804;2023-12-20T11:47:46;9.50;1.00
19033;DHT22;9649;51.042;13.804;2023-12-20T11:52:53;9.40;3.80
19033;DHT22;9649;51.042;13.804;2023-12-20T11:57:56;9.30;1.00
19033;DHT22;9649;51.042;13.804;2023-12-20T12:03:01;10.40;1.00
19033;DHT22;9649;51.042;13.804;2023-12-20T12:08:05;12.30;1.00
19033;DHT22;9649;51.042;13.804;2023-12-20T12:13:10;16.50;1.00
19033;DHT22;9649;51.042;13.804;2023-12-20T12:18:17;18.50;99.90
19033;DHT22;9649;51.042;13.804;2023-12-20T12:23:23;18.80;99.90
19033;DHT22;9649;51.042;13.804;2023-12-20T12:28:26;19.40;99.90
19033;DHT22;9649;51.042;13.804;2023-12-20T12:33:32;19.10;99.90
19033;DHT22;9649;51.042;13.804;2023-12-20T12:38:35;18.80;99.90
19033;DHT22;9649;51.042;13.804;2023-12-20T12:43:38;20.10;99.90
19033;DHT22;9649;51.042;13.804;2023-12-20T12:48:42;19.40;99.90
19033;DHT22;9649;51.042;13.804;2023-12-20T12:53:48;17.60;99.90
19033;DHT22;9649;51.042;13.804;2023-12-20T12:58:50;15.10;99.90
19033;DHT22;9649;51.042;13.804;2023-12-20T13:03:54;15.20;99.90
19033;DHT22;9649;51.042;13.804;2023-12-20T13:08:57;16.60;99.90
19033;DHT22;9649;51.042;13.804;2023-12-20T13:14:00;17.30;99.90
19033;DHT22;9649;51.042;13.804;2023-12-20T13:19:04;17.40;99.90
19033;DHT22;9649;51.042;13.804;2023-12-20T13:24:07;17.60;99.90
19033;DHT22;9649;51.042;13.804;2023-12-20T13:29:10;15.90;99.90
19033;DHT22;9649;51.042;13.804;2023-12-20T13:34:15;13.50;99.90
19033;DHT22;9649;51.042;13.804;2023-12-20T13:39:19;12.20;1.00
19033;DHT22;9649;51.042;13.804;2023-12-20T13:44:22;11.10;1.00
19033;DHT22;9649;51.042;13.804;2023-12-20T13:49:27;10.90;1.00
19033;DHT22;9649;51.042;13.804;2023-12-20T13:54:30;10.70;1.00
19033;DHT22;9649;51.042;13.804;2023-12-20T13:59:33;10.30;1.00
19033;DHT22;9649;51.042;13.804;2023-12-20T14:04:38;9.70;99.90
19033;DHT22;9649;51.042;13.804;2023-12-20T14:09:44;9.50;1.00
19033;DHT22;9649;51.042;13.804;2023-12-20T14:14:48;9.40;1.00
19033;DHT22;9649;51.042;13.804;2023-12-20T14:19:52;9.20;1.00
19033;DHT22;9649;51.042;13.804;2023-12-20T14:24:56;9.10;1.00
19033;DHT22;9649;51.042;13.804;2023-12-20T14:29:59;9.00;1.00
19033;DHT22;9649;51.042;13.804;2023-12-20T14:35:04;8.80;99.90
19033;DHT22;9649;51.042;13.804;2023-12-20T14:40:08;8.60;99.90
19033;DHT22;9649;51.042;13.804;2023-12-20T14:45:17;8.50;99.90
19033;DHT22;9649;51.042;13.804;2023-12-20T14:50:21;8.40;1.00
19033;DHT22;9649;51.042;13.804;2023-12-20T14:55:24;8.30;1.00
19033;DHT22;9649;51.042;13.804;2023-12-20T15:00:29;8.40;1.00
19033;DHT22;9649;51.042;13.804;2023-12-20T15:05:33;8.40;1.00
19033;DHT22;9649;51.042;13.804;2023-12-20T15:10:37;8.50;1.00
19033;DHT22;9649;51.042;13.804;2023-12-20T15:15:40;8.40;1.00
19033;DHT22;9649;51.042;13.804;2023-12-20T15:20:48;8.40;1.00
19033;DHT22;9649;51.042;13.804;2023-12-20T15:25:51;8.30;1.00
19033;DHT22;9649;51.042;13.804;2023-12-20T15:30:54;8.20;1.00
19033;DHT22;9649;51.042;13.804;2023-12-20T15:35:59;8.10;99.90
19033;DHT22;9649;51.042;13.804;2023-12-20T15:41:02;8.10;1.00
19033;DHT22;9649;51.042;13.804;2023-12-20T15:46:05;8.00;1.00
19033;DHT22;9649;51.042;13.804;2023-12-20T15:51:09;8.10;99.90
19033;DHT22;9649;51.042;13.804;2023-12-20T15:56:12;8.10;1.00
19033;DHT22;9649;51.042;13.804;2023-12-20T16:01:15;8.20;99.90
19033;DHT22;9649;51.042;13.804;2023-12-20T16:06:20;8.20;99.90
19033;DHT22;9649;51.042;13.804;2023-12-20T16:11:23;8.20;99.90
19033;DHT22;9649;51.042;13.804;2023-12-20T16:16:26;8.20;1.00
19033;DHT22;9649;51.042;13.804;2023-12-20T16:21:30;8.20;99.90
19033;DHT22;9649;51.042;13.804;2023-12-20T16:26:33;8.10;1.00
19033;DHT22;9649;51.042;13.804;2023-12-20T16:31:36;8.00;1.00
19033;DHT22;9649;51.042;13.804;2023-12-20T16:36:51;8.10;1.00
19033;DHT22;9649;51.042;13.804;2023-12-20T16:41:54;8.00;52.40
19033;DHT22;9649;51.042;13.804;2023-12-20T16:46:57;8.00;74.90
19033;DHT22;9649;51.042;13.804;2023-12-20T16:52:01;7.90;1.00
19033;DHT22;9649;51.042;13.804;2023-12-20T16:57:06;8.00;35.70
19033;DHT22;9649;51.042;13.804;2023-12-20T17:02:09;8.00;1.00
19033;DHT22;9649;51.042;13.804;2023-12-20T17:07:14;8.00;1.00
19033;DHT22;9649;51.042;13.804;2023-12-20T17:12:18;7.90;99.90
19033;DHT22;9649;51.042;13.804;2023-12-20T17:17:21;7.90;1.00
19033;DHT22;9649;51.042;13.804;2023-12-20T17:22:25;7.90;1.00
19033;DHT22;9649;51.042;13.804;2023-12-20T17:27:28;7.70;1.00
19033;DHT22;9649;51.042;13.804;2023-12-20T17:32:30;7.60;99.90
19033;DHT22;9649;51.042;13.804;2023-12-20T17:37:34;7.40;1.00
19033;DHT22;9649;51.042;13.804;2023-12-20T17:42:37;7.30;1.00
19033;DHT22;9649;51.042;13.804;2023-12-20T17:47:40;7.30;99.90
19033;DHT22;9649;51.042;13.804;2023-12-20T17:52:47;7.20;1.00
19033;DHT22;9649;51.042;13.804;2023-12-20T17:57:49;6.90;1.00
19033;DHT22;9649;51.042;13.804;2023-12-20T18:02:52;6.80;59.50
19033;DHT22;9649;51.042;13.804;2023-12-20T18:07:57;6.50;99.90
19033;DHT22;9649;51.042;13.804;2023-12-20T18:12:59;6.30;99.90
19033;DHT22;9649;51.042;13.804;2023-12-20T18:18:03;6.30;99.90
19033;DHT22;9649;51.042;13.804;2023-12-20T18:23:07;6.20;99.90
19033;DHT22;9649;51.042;13.804;2023-12-20T18:28:12;6.20;99.90
19033;DHT22;9649;51.042;13.804;2023-12-20T18:33:15;6.10;99.90
19033;DHT22;9649;51.042;13.804;2023-12-20T18:38:19;6.00;99.90
19033;DHT22;9649;51.042;13.804;2023-12-20T18:43:23;6.20;99.90
19033;DHT22;9649;51.042;13.804;2023-12-20T18:48:27;6.10;99.90
19033;DHT22;9649;51.042;13.804;2023-12-20T18:53:31;6.00;99.90
19033;DHT22;9649;51.042;13.804;2023-12-20T18:58:34;6.00;99.90
19033;DHT22;9649;51.042;13.804;2023-12-20T19:03:36;5.90;99.90
19033;DHT22;9649;51.042;13.804;2023-12-20T19:08:40;6.00;99.90
19033;DHT22;9649;51.042;13.804;2023-12-20T19:13:43;6.00;99.90
19033;DHT22;9649;51.042;13.804;2023-12-20T19:18:46;5.90;99.90
19033;DHT22;9649;51.042;13.804;2023-12-20T19:23:50;5.90;99.90
19033;DHT22;9649;51.042;13.804;2023-12-20T19:28:53;5.90;99.90
19033;DHT22;9649;51.042;13.804;2023-12-20T19:33:56;6.00;99.90
19033;DHT22;9649;51.042;13.804;2023-12-20T19:39:01;6.00;99.90
19033;DHT22;9649;51.042;13.804;2023-12-20T19:44:04;6.00;99.90
19033;DHT22;9649;51.042;13.804;2023-12-20T19:49:08;6.00;99.90
19033;DHT22;9649;51.042;13.804;2023-12-20T19:54:12;5.80;99.90
19033;DHT22;9649;51.042;13.804;2023-12-20T19:59:15;5.80;99.90
19033;DHT22;9649;51.042;13.804;2023-12-20T20:04:18;5.80;99.90
19033;DHT22;9649;51.042;13.804;2023-12-20T20:09:22;5.80;99.90
19033;DHT22;9649;51.042;13.804;2023-12-20T20:14:25;5.80;99.90
19033;DHT22;9649;51.042;13.804;2023-12-20T20:19:29;5.70;99.90
19033;DHT22;9649;51.042;13.804;2023-12-20T20:24:34;5.80;99.90
19033;DHT22;9649;51.042;13.804;2023-12-20T20:29:36;5.80;99.90
19033;DHT22;9649;51.042;13.804;2023-12-20T20:34:39;5.80;99.90
19033;DHT22;9649;51.042;13.804;2023-12-20T20:39:43;5.90;99.90
19033;DHT22;9649;51.042;13.804;2023-12-20T20:44:50;6.00;99.90
19033;DHT22;9649;51.042;13.804;2023-12-20T20:49:53;6.10;99.90
19033;DHT22;9649;51.042;13.804;2023-12-20T20:54:57;6.10;99.90
19033;DHT22;9649;51.042;13.804;2023-12-20T21:00:00;6.30;99.90
19033;DHT22;9649;51.042;13.804;2023-12-20T21:05:03;6.30;99.90
19033;DHT22;9649;51.042;13.804;2023-12-20T21:10:09;6.30;99.90
19033;DHT22;9649;51.042;13.804;2023-12-20T21:15:11;6.30;1.00
19033;DHT22;9649;51.042;13.804;2023-12-20T21:20:16;6.40;1.00
19033;DHT22;9649;51.042;13.804;2023-12-20T21:25:20;6.50;99.90
19033;DHT22;9649;51.042;13.804;2023-12-20T21:30:23;6.80;1.00
19033;DHT22;9649;51.042;13.804;2023-12-20T21:35:26;6.90;99.90
19033;DHT22;9649;51.042;13.804;2023-12-20T21:40:30;7.00;99.90
19033;DHT22;9649;51.042;13.804;2023-12-20T21:45:33;7.00;1.00
19033;DHT22;9649;51.042;13.804;2023-12-20T21:50:38;7.10;1.00
19033;DHT22;9649;51.042;13.804;2023-12-20T21:55:42;7.10;1.00
19033;DHT22;9649;51.042;13.804;2023-12-20T22:00:45;7.20;1.00
19033;DHT22;9649;51.042;13.804;2023-12-20T22:05:48;7.30;1.00
19033;DHT22;9649;51.042;13.804;2023-12-20T22:10:52;7.30;1.00
19033;DHT22;9649;51.042;13.804;2023-12-20T22:15:55;7.30;1.00
19033;DHT22;9649;51.042;13.804;2023-12-20T22:20:58;7.40;1.00
19033;DHT22;9649;51.042;13.804;2023-12-20T22:26:03;7.40;99.90
19033;DHT22;9649;51.042;13.804;2023-12-20T22:31:07;7.40;99.90
19033;DHT22;9649;51.042;13.804;2023-12-20T22:36:10;7.40;1.00
19033;DHT22;9649;51.042;13.804;2023-12-20T22:41:15;7.40;99.90
19033;DHT22;9649;51.042;13.804;2023-12-20T22:46:18;7.50;99.90
19033;DHT22;9649;51.042;13.804;2023-12-20T22:51:21;7.40;99.90
19033;DHT22;9649;51.042;13.804;2023-12-20T22:56:25;7.40;1.00
19033;DHT22;9649;51.042;13.804;2023-12-20T23:01:28;7.30;43.80
19033;DHT22;9649;51.042;13.804;2023-12-20T23:06:32;7.20;99.90
19033;DHT22;9649;51.042;13.804;2023-12-20T23:11:36;7.20;1.00
19033;DHT22;9649;51.042;13.804;2023-12-20T23:16:39;7.20;99.90
19033;DHT22;9649;51.042;13.804;2023-12-20T23:21:41;7.30;17.00
19033;DHT22;9649;51.042;13.804;2023-12-20T23:26:45;7.30;1.00
19033;DHT22;9649;51.042;13.804;2023-12-20T23:31:48;7.30;1.00
19033;DHT22;9649;51.042;13.804;2023-12-20T23:36:51;7.20;1.00
19033;DHT22;9649;51.042;13.804;2023-12-20T23:41:55;7.30;1.00
19033;DHT22;9649;51.042;13.804;2023-12-20T23:46:58;7.30;1.00
19033;DHT22;9649;51.042;13.804;2023-12-20T23:52:01;7.20;1.00
19033;DHT22;9649;51.042;13.804;2023-12-20T23:57:05;7.30;1.00
